createdAt,value
2023-10-22T00:02:21.469Z,99013.72
2023-10-22T00:04:48.453Z,99040.66
2023-10-22T00:07:16.113Z,99008.88
2023-10-22T00:09:43.118Z,99029.22
2023-10-22T00:12:10.342Z,99029.81
2023-10-22T00:14:38.473Z,99037.78
2023-10-22T00:17:05.685Z,98999.81
2023-10-22T00:19:46.161Z,99024.47
2023-10-22T00:22:15.532Z,99022.72
2023-10-22T00:24:42.767Z,99004.88
2023-10-22T00:27:09.730Z,98968.25
2023-10-22T00:29:36.666Z,98977.69
2023-10-22T00:32:03.703Z,98976.16
2023-10-22T00:34:31.236Z,98993.91
2023-10-22T00:36:58.423Z,98994.72
2023-10-22T00:39:25.520Z,98964.59
2023-10-22T00:41:52.728Z,99007.81
2023-10-22T00:44:19.893Z,98997.25
2023-10-22T00:46:48.421Z,99028.97
2023-10-22T00:49:18.061Z,99037.50
2023-10-22T00:51:46.414Z,99055.22
2023-10-22T00:54:16.087Z,99050.56
2023-10-22T00:56:43.941Z,99031.94
2023-10-22T00:59:15.509Z,99045.75
2023-10-22T01:01:44.092Z,99014.34
2023-10-22T01:04:12.277Z,99035.47
2023-10-22T01:06:40.263Z,99013.56
2023-10-22T01:09:11.352Z,99041.03
2023-10-22T01:11:56.519Z,99026.16
2023-10-22T01:14:23.715Z,99055.00
2023-10-22T01:16:50.476Z,99051.59
2023-10-22T01:19:17.618Z,99040.56
2023-10-22T01:21:45.005Z,99059.19
2023-10-22T01:24:11.911Z,99012.56
2023-10-22T01:26:42.953Z,99028.31
2023-10-22T01:29:10.130Z,99049.25
2023-10-22T01:31:37.474Z,99045.41
2023-10-22T01:34:05.260Z,99037.13
2023-10-22T01:36:32.167Z,99037.41
2023-10-22T01:38:59.650Z,99037.91
2023-10-22T01:41:27.393Z,99052.16
2023-10-22T01:43:55.244Z,99052.91
2023-10-22T01:46:22.320Z,99025.25
2023-10-22T01:48:49.539Z,99065.38
2023-10-22T01:51:16.579Z,99059.63
2023-10-22T01:53:44.003Z,99045.69
2023-10-22T01:56:11.071Z,99045.31
2023-10-22T01:58:38.352Z,99035.44
2023-10-22T02:01:05.725Z,99053.34
2023-10-22T02:03:36.960Z,99046.22
2023-10-22T02:06:15.022Z,99061.69
2023-10-22T02:08:42.843Z,99059.53
2023-10-22T02:11:11.330Z,99069.09
2023-10-22T02:13:39.177Z,99055.41
2023-10-22T02:16:06.345Z,99084.72
2023-10-22T02:18:35.327Z,99079.75
2023-10-22T02:21:04.766Z,99083.22
2023-10-22T02:23:32.077Z,99079.44
2023-10-22T02:25:59.339Z,99100.19
2023-10-22T02:28:26.246Z,99072.91
2023-10-22T02:30:53.346Z,99061.50
2023-10-22T02:33:20.362Z,99101.72
2023-10-22T02:35:47.736Z,99078.09
2023-10-22T02:38:16.991Z,99106.25
2023-10-22T02:40:46.216Z,99079.28
2023-10-22T02:43:13.225Z,99108.81
2023-10-22T02:45:52.892Z,99098.66
2023-10-22T02:48:20.753Z,99099.13
2023-10-22T02:50:48.404Z,99065.97
2023-10-22T02:53:15.634Z,99082.72
2023-10-22T02:55:42.713Z,99095.19
2023-10-22T02:58:09.795Z,99098.06
2023-10-22T03:00:37.788Z,99089.44
2023-10-22T03:03:05.345Z,99079.28
2023-10-22T03:05:37.852Z,99107.06
2023-10-22T03:08:05.209Z,99095.88
2023-10-22T03:10:33.499Z,99100.97
2023-10-22T03:13:02.174Z,99094.59
2023-10-22T03:15:29.470Z,99067.97
2023-10-22T03:17:58.596Z,99115.72
2023-10-22T03:20:26.435Z,99105.22
2023-10-22T03:22:54.879Z,99072.81
2023-10-22T03:25:23.249Z,99099.19
2023-10-22T03:27:51.098Z,99120.34
2023-10-22T03:30:18.737Z,99078.53
2023-10-22T03:32:46.511Z,99071.63
2023-10-22T03:35:14.495Z,99115.84
2023-10-22T03:37:42.446Z,99096.53
2023-10-22T03:40:11.342Z,99092.84
2023-10-22T03:42:38.800Z,99115.50
2023-10-22T03:45:08.080Z,99117.22
2023-10-22T03:47:35.225Z,99110.41
2023-10-22T03:50:02.974Z,99096.56
2023-10-22T03:52:30.638Z,99089.84
2023-10-22T03:54:58.601Z,99099.78
2023-10-22T03:57:26.429Z,99068.84
2023-10-22T03:59:53.656Z,99100.50
2023-10-22T04:02:20.583Z,99112.50
2023-10-22T04:04:47.451Z,99115.69
2023-10-22T04:07:14.446Z,99129.75
2023-10-22T04:09:41.814Z,99122.13
2023-10-22T04:12:09.641Z,99140.81
2023-10-22T04:14:37.127Z,99114.50
2023-10-22T04:17:04.469Z,99108.97
2023-10-22T04:19:31.466Z,99136.47
2023-10-22T04:21:58.471Z,99149.81
2023-10-22T04:24:25.534Z,99137.94
2023-10-22T04:26:52.552Z,99154.72
2023-10-22T04:29:19.542Z,99152.56
2023-10-22T04:31:46.695Z,99144.38
2023-10-22T04:34:13.774Z,99145.19
2023-10-22T04:36:40.769Z,99137.69
2023-10-22T04:39:07.927Z,99113.34
2023-10-22T04:41:34.892Z,99153.81
2023-10-22T04:44:02.848Z,99139.41
2023-10-22T04:46:29.803Z,99136.88
2023-10-22T04:48:57.178Z,99152.81
2023-10-22T04:51:25.338Z,99149.38
2023-10-22T04:53:52.346Z,99137.94
2023-10-22T04:56:19.439Z,99120.19
2023-10-22T04:58:46.263Z,99104.03
2023-10-22T05:01:13.293Z,99111.78
2023-10-22T05:03:40.866Z,99146.19
2023-10-22T05:06:10.378Z,99138.81
2023-10-22T05:08:39.442Z,99151.13
2023-10-22T05:11:09.826Z,99142.22
2023-10-22T05:13:37.009Z,99156.28
2023-10-22T05:16:04.239Z,99124.44
2023-10-22T05:18:31.347Z,99121.78
2023-10-22T05:21:03.598Z,99159.47
2023-10-22T05:23:30.482Z,99137.44
2023-10-22T05:26:08.549Z,99159.25
2023-10-22T05:28:35.708Z,99158.75
2023-10-22T05:31:02.796Z,99153.63
2023-10-22T05:33:30.039Z,99055.84
2023-10-22T05:35:57.545Z,99153.53
2023-10-22T05:38:24.719Z,99126.22
2023-10-22T05:40:52.010Z,99132.25
2023-10-22T05:43:19.087Z,99148.94
2023-10-22T05:45:46.481Z,99147.66
2023-10-22T05:48:13.718Z,99128.31
2023-10-22T05:50:40.891Z,99158.91
2023-10-22T05:53:09.085Z,99182.38
2023-10-22T05:55:36.442Z,99172.97
2023-10-22T05:58:04.000Z,99155.81
2023-10-22T06:00:31.115Z,99146.25
2023-10-22T06:02:58.436Z,99161.03
2023-10-22T06:05:25.672Z,99138.41
2023-10-22T06:07:54.254Z,99051.41
2023-10-22T06:10:21.311Z,99126.81
2023-10-22T06:12:50.960Z,99139.13
2023-10-22T06:15:18.045Z,99149.03
2023-10-22T06:17:45.989Z,99111.59
2023-10-22T06:20:13.123Z,99074.41
2023-10-22T06:22:40.119Z,99099.63
2023-10-22T06:25:07.579Z,99129.22
2023-10-22T06:27:34.525Z,99167.34
2023-10-22T06:30:01.910Z,99072.03
2023-10-22T06:32:29.088Z,99085.75
2023-10-22T06:34:56.263Z,99093.72
2023-10-22T06:37:23.282Z,99087.34
2023-10-22T06:39:52.376Z,99089.00
2023-10-22T06:42:19.662Z,99140.69
2023-10-22T06:44:46.653Z,99096.13
2023-10-22T06:47:13.768Z,99135.25
2023-10-22T06:49:40.762Z,99123.28
2023-10-22T06:52:07.717Z,99077.25
2023-10-22T06:54:34.862Z,99011.91
2023-10-22T06:57:01.936Z,99100.22
2023-10-22T06:59:29.869Z,99103.47
2023-10-22T07:01:56.972Z,99080.00
2023-10-22T07:04:24.181Z,99125.97
2023-10-22T07:06:51.315Z,99095.59
2023-10-22T07:09:18.498Z,99071.56
2023-10-22T07:11:47.011Z,99131.03
2023-10-22T07:14:14.342Z,99100.25
2023-10-22T07:16:42.043Z,99085.97
2023-10-22T07:19:09.080Z,99084.84
2023-10-22T07:21:36.350Z,99124.25
2023-10-22T07:24:03.524Z,99116.75
2023-10-22T07:26:31.041Z,99119.25
2023-10-22T07:28:58.184Z,99128.13
2023-10-22T07:31:25.274Z,99109.81
2023-10-22T07:33:52.635Z,99038.91
2023-10-22T07:36:19.723Z,99102.75
2023-10-22T07:38:47.105Z,99079.97
2023-10-22T07:41:16.243Z,99031.06
2023-10-22T07:43:43.455Z,99085.31
2023-10-22T07:46:12.272Z,99017.19
2023-10-22T07:48:39.457Z,99077.78
2023-10-22T07:51:15.341Z,99087.78
2023-10-22T07:53:42.774Z,99047.75
2023-10-22T07:56:11.387Z,99063.78
2023-10-22T07:58:40.521Z,99087.03
2023-10-22T08:01:08.061Z,99089.09
2023-10-22T08:03:35.906Z,99038.19
2023-10-22T08:06:04.564Z,99036.59
2023-10-22T08:08:32.119Z,99041.44
2023-10-22T08:11:04.177Z,99038.22
2023-10-22T08:13:31.766Z,99052.72
2023-10-22T08:15:58.719Z,99096.38
2023-10-22T08:18:25.982Z,99095.19
2023-10-22T08:20:53.386Z,99015.91
2023-10-22T08:23:20.527Z,99090.38
2023-10-22T08:25:54.548Z,99077.16
2023-10-22T08:28:21.662Z,99075.16
2023-10-22T08:30:49.460Z,99069.13
2023-10-22T08:33:16.976Z,99072.72
2023-10-22T08:35:44.457Z,99070.34
2023-10-22T08:38:12.147Z,99014.69
2023-10-22T08:40:42.834Z,99027.47
2023-10-22T08:43:20.027Z,99005.03
2023-10-22T08:45:50.195Z,98976.63
2023-10-22T08:48:18.725Z,99020.63
2023-10-22T08:50:48.404Z,99015.78
2023-10-22T08:53:16.650Z,99077.75
2023-10-22T08:55:49.078Z,98994.88
2023-10-22T08:58:18.071Z,99043.69
2023-10-22T09:00:46.902Z,99076.09
2023-10-22T09:03:15.914Z,99083.69
2023-10-22T09:05:43.840Z,99080.50
2023-10-22T09:08:11.705Z,99082.84
2023-10-22T09:10:39.417Z,99078.38
2023-10-22T09:13:15.916Z,99075.16
2023-10-22T09:15:45.561Z,99020.31
2023-10-22T09:18:13.669Z,99070.44
2023-10-22T09:20:42.520Z,99073.22
2023-10-22T09:23:20.588Z,99053.66
2023-10-22T09:25:57.474Z,99033.47
2023-10-22T09:28:26.600Z,99019.75
2023-10-22T09:31:05.377Z,99034.44
2023-10-22T09:33:34.083Z,99046.94
2023-10-22T09:36:09.339Z,98969.25
2023-10-22T09:38:50.497Z,99057.75
2023-10-22T09:41:29.843Z,99054.22
2023-10-22T09:44:02.097Z,99034.34
2023-10-22T09:46:33.990Z,99013.94
2023-10-22T09:49:05.900Z,99013.06
2023-10-22T09:51:35.841Z,99007.25
2023-10-22T09:54:08.141Z,99024.69
2023-10-22T09:56:51.989Z,99042.88
2023-10-22T09:59:24.022Z,99027.34
2023-10-22T10:01:52.708Z,99037.63
2023-10-22T10:04:22.351Z,99001.59
2023-10-22T10:06:51.061Z,98977.06
2023-10-22T10:09:18.268Z,98983.66
2023-10-22T10:11:46.000Z,99003.50
2023-10-22T10:14:33.642Z,98920.34
2023-10-22T10:17:03.590Z,98923.59
2023-10-22T10:19:31.062Z,98956.41
2023-10-22T10:21:58.360Z,98993.44
2023-10-22T10:24:29.611Z,98989.09
2023-10-22T10:26:57.518Z,98981.66
2023-10-22T10:29:26.826Z,98944.97
2023-10-22T10:31:56.594Z,98954.88
2023-10-22T10:34:33.949Z,98977.81
2023-10-22T10:37:23.129Z,98964.09
2023-10-22T10:39:54.855Z,98962.09
2023-10-22T10:42:30.967Z,98961.28
2023-10-22T10:45:02.306Z,98960.31
2023-10-22T10:47:37.687Z,98920.97
2023-10-22T10:50:13.325Z,98927.75
2023-10-22T10:52:43.601Z,98931.28
2023-10-22T10:55:19.805Z,98935.00
2023-10-22T10:57:51.708Z,98920.03
2023-10-22T11:00:25.771Z,98934.63
2023-10-22T11:02:54.324Z,98876.78
2023-10-22T11:05:41.341Z,98929.59
2023-10-22T11:08:23.458Z,98875.88
2023-10-22T11:10:50.802Z,98934.03
2023-10-22T11:13:27.096Z,98921.88
2023-10-22T11:16:04.037Z,98857.31
2023-10-22T11:18:31.128Z,98930.03
2023-10-22T11:20:58.653Z,98938.53
2023-10-22T11:23:26.008Z,98928.94
2023-10-22T11:25:53.407Z,98913.63
2023-10-22T11:28:20.622Z,98924.97
2023-10-22T11:30:47.837Z,98899.31
2023-10-22T11:33:36.085Z,98874.06
2023-10-22T11:36:18.071Z,98856.59
2023-10-22T11:38:45.267Z,98865.53
2023-10-22T11:41:12.308Z,98870.41
2023-10-22T11:43:44.493Z,98896.88
2023-10-22T11:46:12.515Z,98923.84
2023-10-22T11:48:45.917Z,98893.84
2023-10-22T11:51:13.163Z,98919.72
2023-10-22T11:53:42.376Z,98943.75
2023-10-22T11:56:09.820Z,98900.03
2023-10-22T11:58:37.187Z,98905.25
2023-10-22T12:01:04.223Z,98913.00
2023-10-22T12:03:31.154Z,98899.94
2023-10-22T12:05:58.362Z,98896.47
2023-10-22T12:08:25.470Z,98920.72
2023-10-22T12:10:52.675Z,98944.88
2023-10-22T12:13:19.728Z,98955.63
2023-10-22T12:15:46.961Z,98861.84
2023-10-22T12:18:14.649Z,98950.41
2023-10-22T12:20:41.790Z,98867.94
2023-10-22T12:23:12.411Z,98952.59
2023-10-22T12:25:39.871Z,98913.59
2023-10-22T12:28:07.369Z,98928.28
2023-10-22T12:30:36.061Z,98914.56
2023-10-22T12:33:03.637Z,98903.75
2023-10-22T12:35:31.425Z,98910.22
2023-10-22T12:37:58.847Z,98953.44
2023-10-22T12:40:25.900Z,98911.75
2023-10-22T12:42:53.174Z,98946.91
2023-10-22T12:45:20.832Z,98943.72
2023-10-22T12:47:47.835Z,98909.81
2023-10-22T12:50:15.193Z,98940.44
2023-10-22T12:52:42.164Z,98898.00
2023-10-22T12:55:09.575Z,98936.16
2023-10-22T12:57:36.923Z,98936.06
2023-10-22T13:00:13.924Z,98938.75
2023-10-22T13:02:42.281Z,98950.75
2023-10-22T13:05:09.569Z,98870.50
2023-10-22T13:07:37.686Z,98900.91
2023-10-22T13:10:06.124Z,98858.13
2023-10-22T13:12:33.681Z,98922.09
2023-10-22T13:15:01.324Z,98941.81
2023-10-22T13:17:29.388Z,98937.16
2023-10-22T13:19:56.441Z,98958.72
2023-10-22T13:22:23.930Z,98923.38
2023-10-22T13:24:51.103Z,98947.78
2023-10-22T13:27:18.502Z,98892.78
2023-10-22T13:29:45.614Z,98921.81
2023-10-22T13:32:13.921Z,98938.25
2023-10-22T13:34:42.422Z,98902.75
2023-10-22T13:37:09.501Z,98949.78
2023-10-22T13:39:36.645Z,98949.31
2023-10-22T13:42:04.188Z,98938.38
2023-10-22T13:44:31.142Z,98909.22
2023-10-22T13:46:58.481Z,98899.31
2023-10-22T13:49:25.823Z,98917.25
2023-10-22T13:51:52.928Z,98903.38
2023-10-22T13:54:19.952Z,98940.06
2023-10-22T13:56:47.543Z,98941.47
2023-10-22T13:59:16.162Z,98944.38
2023-10-22T14:01:43.308Z,98899.19
2023-10-22T14:04:10.792Z,98897.59
2023-10-22T14:06:37.953Z,98936.56
2023-10-22T14:09:05.217Z,98888.91
2023-10-22T14:11:32.253Z,98885.72
2023-10-22T14:13:59.837Z,98935.13
2023-10-22T14:16:27.321Z,98941.56
2023-10-22T14:18:54.779Z,98929.47
2023-10-22T14:21:23.138Z,98939.03
2023-10-22T14:23:50.274Z,98900.56
2023-10-22T14:26:17.805Z,98873.75
2023-10-22T14:28:44.859Z,98941.72
2023-10-22T14:31:12.337Z,98940.72
2023-10-22T14:33:39.495Z,98896.31
2023-10-22T14:36:09.842Z,98956.38
2023-10-22T14:38:36.793Z,98890.78
2023-10-22T14:41:07.280Z,98951.41
2023-10-22T14:43:34.475Z,98896.25
2023-10-22T14:46:02.352Z,98930.94
2023-10-22T14:48:30.198Z,98900.44
2023-10-22T14:51:02.338Z,98891.34
2023-10-22T14:53:30.401Z,98907.66
2023-10-22T14:55:58.751Z,98937.22
2023-10-22T14:58:26.277Z,98962.56
2023-10-22T15:00:53.518Z,98953.94
2023-10-22T15:03:21.406Z,98961.31
2023-10-22T15:05:50.279Z,98911.72
2023-10-22T15:08:17.923Z,98884.03
2023-10-22T15:10:46.098Z,98926.09
2023-10-22T15:13:13.981Z,98972.56
2023-10-22T15:15:48.404Z,98928.91
2023-10-22T15:18:16.628Z,98982.13
2023-10-22T15:20:49.246Z,98990.00
2023-10-22T15:23:18.687Z,98972.56
2023-10-22T15:25:50.871Z,98954.34
2023-10-22T15:28:18.820Z,98970.38
2023-10-22T15:30:47.568Z,98995.28
2023-10-22T15:33:15.375Z,99007.88
2023-10-22T15:35:42.377Z,98962.09
2023-10-22T15:38:11.676Z,99011.75
2023-10-22T15:40:38.589Z,99023.06
2023-10-22T15:43:05.580Z,98954.06
2023-10-22T15:45:33.217Z,99012.44
2023-10-22T15:48:02.649Z,99029.69
2023-10-22T15:50:30.565Z,98990.63
2023-10-22T15:52:59.734Z,98996.28
2023-10-22T15:55:26.625Z,99013.50
2023-10-22T15:57:53.614Z,99048.38
2023-10-22T16:00:22.946Z,99040.84
2023-10-22T16:02:50.385Z,99062.91
2023-10-22T16:05:18.380Z,99050.09
2023-10-22T16:07:45.394Z,99012.53
2023-10-22T16:10:12.823Z,99068.16
2023-10-22T16:12:40.779Z,99021.34
2023-10-22T16:15:09.070Z,99063.75
2023-10-22T16:17:42.833Z,98983.41
2023-10-22T16:20:11.302Z,99064.59
2023-10-22T16:22:39.027Z,99035.84
2023-10-22T16:25:06.674Z,99045.50
2023-10-22T16:27:34.272Z,99047.91
2023-10-22T16:30:01.622Z,99019.88
2023-10-22T16:32:28.940Z,99054.72
2023-10-22T16:34:56.086Z,99074.34
2023-10-22T16:37:23.171Z,99020.28
2023-10-22T16:39:50.378Z,99050.72
2023-10-22T16:42:17.234Z,99065.53
2023-10-22T16:44:44.176Z,99072.34
2023-10-22T16:47:11.259Z,98971.84
2023-10-22T16:49:38.584Z,99020.31
2023-10-22T16:52:05.965Z,99083.97
2023-10-22T16:54:33.097Z,99033.53
2023-10-22T16:57:02.005Z,99026.28
2023-10-22T16:59:29.006Z,99081.97
2023-10-22T17:01:56.263Z,99038.25
2023-10-22T17:04:23.516Z,99083.97
2023-10-22T17:06:51.373Z,99084.75
2023-10-22T17:09:18.500Z,99080.69
2023-10-22T17:11:45.592Z,99085.06
2023-10-22T17:14:13.286Z,99084.66
2023-10-22T17:16:41.546Z,99091.41
2023-10-22T17:19:08.721Z,99079.78
2023-10-22T17:21:36.160Z,99086.56
2023-10-22T17:24:03.275Z,99080.88
2023-10-22T17:26:30.272Z,99102.50
2023-10-22T17:28:57.527Z,99035.44
2023-10-22T17:31:25.693Z,99006.16
2023-10-22T17:34:04.805Z,99098.72
2023-10-22T17:36:33.039Z,99103.50
2023-10-22T17:39:00.225Z,99116.28
2023-10-22T17:41:27.584Z,99117.47
2023-10-22T17:43:54.633Z,99117.84
2023-10-22T17:46:21.755Z,99042.28
2023-10-22T17:48:50.296Z,99073.66
2023-10-22T17:51:17.766Z,99109.69
2023-10-22T17:53:48.276Z,99068.69
2023-10-22T17:56:15.680Z,99119.19
2023-10-22T17:58:42.966Z,99049.22
2023-10-22T18:01:10.185Z,99111.03
2023-10-22T18:03:38.962Z,99135.84
2023-10-22T18:06:06.961Z,99090.81
2023-10-22T18:08:36.492Z,99139.78
2023-10-22T18:11:04.445Z,99139.38
2023-10-22T18:13:32.552Z,99128.84
2023-10-22T18:15:59.700Z,99081.44
2023-10-22T18:18:27.298Z,99135.13
2023-10-22T18:20:56.115Z,99093.72
2023-10-22T18:23:25.622Z,99147.38
2023-10-22T18:26:00.385Z,99125.97
2023-10-22T18:28:27.615Z,99158.16
2023-10-22T18:30:54.825Z,99148.69
2023-10-22T18:33:21.909Z,99171.47
2023-10-22T18:35:48.997Z,99164.59
2023-10-22T18:38:17.882Z,99172.50
2023-10-22T18:40:48.096Z,99149.16
2023-10-22T18:43:16.385Z,99153.53
2023-10-22T18:45:44.222Z,99174.75
2023-10-22T18:48:13.669Z,99129.53
2023-10-22T18:50:40.938Z,99175.63
2023-10-22T18:53:08.547Z,99179.16
2023-10-22T18:55:35.811Z,99172.31
2023-10-22T18:58:03.057Z,99141.66
2023-10-22T19:00:30.365Z,99090.06
2023-10-22T19:02:57.477Z,99165.25
2023-10-22T19:05:24.654Z,99166.81
2023-10-22T19:07:51.776Z,99183.59
2023-10-22T19:10:19.013Z,99179.84
2023-10-22T19:12:46.186Z,99188.94
2023-10-22T19:15:13.688Z,99111.63
2023-10-22T19:17:42.928Z,99184.00
2023-10-22T19:20:11.081Z,99169.06
2023-10-22T19:22:38.326Z,99163.06
2023-10-22T19:25:06.182Z,99192.91
2023-10-22T19:27:38.254Z,99165.19
2023-10-22T19:30:06.997Z,99138.25
2023-10-22T19:32:35.139Z,99201.72
2023-10-22T19:35:02.562Z,99173.53
2023-10-22T19:37:29.899Z,99179.91
2023-10-22T19:39:56.858Z,99155.97
2023-10-22T19:42:27.188Z,99192.69
2023-10-22T19:44:54.166Z,99178.13
2023-10-22T19:47:21.685Z,99188.47
2023-10-22T19:49:48.671Z,99175.09
2023-10-22T19:52:29.630Z,99212.38
2023-10-22T19:55:01.290Z,99174.91
2023-10-22T19:57:28.570Z,99178.50
2023-10-22T19:59:55.730Z,99160.66
2023-10-22T20:02:22.806Z,99178.38
2023-10-22T20:04:50.077Z,99180.78
2023-10-22T20:07:17.151Z,99200.41
2023-10-22T20:09:44.117Z,99138.13
2023-10-22T20:12:11.306Z,99218.03
2023-10-22T20:14:39.884Z,99205.66
2023-10-22T20:17:07.660Z,99170.56
2023-10-22T20:19:34.705Z,99194.75
2023-10-22T20:22:01.842Z,99215.97
2023-10-22T20:24:30.811Z,99213.94
2023-10-22T20:27:00.506Z,99181.41
2023-10-22T20:29:27.598Z,99205.44
2023-10-22T20:31:54.669Z,99172.34
2023-10-22T20:34:22.007Z,99203.97
2023-10-22T20:36:49.390Z,99211.16
2023-10-22T20:39:16.746Z,99187.16
2023-10-22T20:41:43.633Z,99229.03
2023-10-22T20:44:10.473Z,99217.50
2023-10-22T20:46:37.595Z,99231.41
2023-10-22T20:49:04.935Z,99223.44
2023-10-22T20:51:32.222Z,99222.53
2023-10-22T20:53:59.480Z,99224.16
2023-10-22T20:56:26.607Z,99225.69
2023-10-22T20:58:53.607Z,99223.56
2023-10-22T21:01:22.479Z,99197.22
2023-10-22T21:03:50.153Z,99192.22
2023-10-22T21:06:18.219Z,99228.69
2023-10-22T21:08:45.914Z,99186.25
2023-10-22T21:11:13.587Z,99225.88
2023-10-22T21:13:40.963Z,99226.88
2023-10-22T21:16:09.449Z,99209.13
2023-10-22T21:18:38.189Z,99155.22
2023-10-22T21:21:05.292Z,99224.28
2023-10-22T21:23:32.208Z,99199.59
2023-10-22T21:26:01.738Z,99181.22
2023-10-22T21:28:28.699Z,99217.59
2023-10-22T21:30:58.991Z,99219.84
2023-10-22T21:33:25.897Z,99141.13
2023-10-22T21:36:06.263Z,99218.22
2023-10-22T21:38:33.693Z,99228.09
2023-10-22T21:41:01.105Z,99223.97
2023-10-22T21:43:28.391Z,99222.72
2023-10-22T21:46:06.635Z,99227.09
2023-10-22T21:48:33.917Z,99208.31
2023-10-22T21:51:00.920Z,99232.44
2023-10-22T21:53:27.995Z,99217.91
2023-10-22T21:55:56.260Z,99197.94
2023-10-22T21:58:23.653Z,99253.22
2023-10-22T22:00:50.880Z,99255.28
2023-10-22T22:03:17.975Z,99224.00
2023-10-22T22:05:45.099Z,99227.94
2023-10-22T22:08:11.952Z,99254.53
2023-10-22T22:10:39.080Z,99213.84
2023-10-22T22:13:06.255Z,99239.75
2023-10-22T22:15:33.394Z,99240.41
2023-10-22T22:18:00.438Z,99257.41
2023-10-22T22:20:27.559Z,99242.16
2023-10-22T22:22:54.699Z,99249.25
2023-10-22T22:25:26.612Z,99220.91
2023-10-22T22:28:00.513Z,99196.03
2023-10-22T22:30:27.803Z,99229.75
2023-10-22T22:32:54.895Z,99240.00
2023-10-22T22:35:22.305Z,99236.97
2023-10-22T22:37:49.315Z,99243.22
2023-10-22T22:40:16.377Z,99204.56
2023-10-22T22:42:43.389Z,99227.19
2023-10-22T22:45:11.906Z,99226.28
2023-10-22T22:47:39.047Z,99235.84
2023-10-22T22:50:07.591Z,99236.00
2023-10-22T22:52:34.689Z,99207.28
2023-10-22T22:55:01.730Z,99198.31
2023-10-22T22:57:28.770Z,99238.47
2023-10-22T23:00:06.029Z,99236.06
2023-10-22T23:02:34.440Z,99226.16
2023-10-22T23:05:01.820Z,99187.84
2023-10-22T23:07:29.713Z,99244.06
2023-10-22T23:09:56.668Z,99242.91
2023-10-22T23:12:24.145Z,99222.38
2023-10-22T23:14:52.906Z,99225.50
2023-10-22T23:17:19.834Z,99230.84
2023-10-22T23:19:47.258Z,99249.53
2023-10-22T23:22:14.364Z,99247.84
2023-10-22T23:24:41.685Z,99206.81
2023-10-22T23:27:09.247Z,99217.91
2023-10-22T23:29:36.483Z,99233.16
2023-10-22T23:32:04.104Z,99245.53
2023-10-22T23:34:31.177Z,99240.53
2023-10-22T23:36:58.196Z,99249.22
2023-10-22T23:39:25.657Z,99213.31
2023-10-22T23:41:53.120Z,99216.44
2023-10-22T23:44:20.089Z,99215.88
2023-10-22T23:46:47.157Z,99235.59
2023-10-22T23:49:14.088Z,99224.88
2023-10-22T23:51:41.096Z,99193.81
2023-10-22T23:54:08.163Z,99223.25
2023-10-22T23:56:35.118Z,99237.81
2023-10-22T23:59:04.868Z,99221.19
